createdAt,value
2022-11-28T00:00:35.468Z,100756.94
2022-11-28T00:03:39.915Z,100761.97
2022-11-28T00:06:45.980Z,100763.72
2022-11-28T00:09:49.399Z,100758.72
2022-11-28T00:12:52.379Z,100762.37
2022-11-28T00:16:00.488Z,100758.56
2022-11-28T00:19:04.807Z,100758.72
2022-11-28T00:22:07.979Z,100764.88
2022-11-28T00:25:10.916Z,100761.75
2022-11-28T00:28:14.255Z,100761.75
2022-11-28T00:31:23.036Z,100758.91
2022-11-28T00:34:26.238Z,100765.50
2022-11-28T00:37:29.145Z,100760.75
2022-11-28T00:40:32.449Z,100760.47
2022-11-28T00:43:36.991Z,100772.28
2022-11-28T00:46:42.059Z,100766.47
2022-11-28T00:49:44.966Z,100773.41
2022-11-28T00:52:49.367Z,100765.06
2022-11-28T00:55:52.271Z,100767.75
2022-11-28T00:58:56.242Z,100775.47
2022-11-28T01:01:59.261Z,100764.09
2022-11-28T01:05:02.576Z,100759.22
2022-11-28T01:08:05.442Z,100754.34
2022-11-28T01:11:13.284Z,100753.72
2022-11-28T01:14:18.405Z,100745.78
2022-11-28T01:17:21.787Z,100749.75
2022-11-28T01:20:25.028Z,100752.56
2022-11-28T01:23:28.598Z,100752.09
2022-11-28T01:26:31.539Z,100753.88
2022-11-28T01:29:34.831Z,100751.66
2022-11-28T01:32:38.020Z,100747.06
2022-11-28T01:35:41.486Z,100742.75
2022-11-28T01:38:44.639Z,100734.56
2022-11-28T01:41:48.427Z,100733.09
2022-11-28T01:44:53.967Z,100732.59
2022-11-28T01:48:00.667Z,100731.69
2022-11-28T01:51:07.659Z,100729.16
2022-11-28T01:54:11.776Z,100714.44
2022-11-28T01:57:20.654Z,100717.44
2022-11-28T02:00:24.321Z,100702.56
2022-11-28T02:03:34.126Z,100705.09
2022-11-28T02:06:37.920Z,100700.22
2022-11-28T02:09:42.897Z,100698.81
2022-11-28T02:12:52.198Z,100688.34
2022-11-28T02:16:16.241Z,100685.66
2022-11-28T02:19:46.472Z,100685.34
2022-11-28T02:23:01.681Z,100686.16
2022-11-28T02:26:04.717Z,100686.31
2022-11-28T02:29:45.054Z,100677.47
2022-11-28T02:32:55.412Z,100672.72
2022-11-28T02:36:01.401Z,100667.47
2022-11-28T02:39:15.045Z,100668.13
2022-11-28T02:42:31.705Z,100664.63
2022-11-28T02:45:44.121Z,100669.88
2022-11-28T02:48:54.517Z,100664.34
2022-11-28T02:52:02.469Z,100665.28
2022-11-28T02:55:07.544Z,100658.63
2022-11-28T02:58:11.950Z,100648.22
2022-11-28T03:01:22.772Z,100644.91
2022-11-28T03:04:53.299Z,100646.81
2022-11-28T03:08:23.954Z,100641.75
2022-11-28T03:12:05.114Z,100643.47
2022-11-28T03:15:09.988Z,100630.84
2022-11-28T03:18:25.434Z,100625.47
2022-11-28T03:21:47.131Z,100622.12
2022-11-28T03:24:56.778Z,100619.94
2022-11-28T03:28:20.179Z,100612.66
2022-11-28T03:31:33.985Z,100607.28
2022-11-28T03:34:44.864Z,100596.84
2022-11-28T03:37:55.868Z,100592.41
2022-11-28T03:41:04.160Z,100591.16
2022-11-28T03:44:12.198Z,100591.16
2022-11-28T03:47:15.590Z,100591.00
2022-11-28T03:50:44.032Z,100587.97
2022-11-28T03:54:00.376Z,100588.94
2022-11-28T03:57:15.319Z,100582.13
2022-11-28T04:00:18.443Z,100578.34
2022-11-28T04:03:41.774Z,100579.13
2022-11-28T04:07:12.236Z,100572.63
2022-11-28T04:10:29.773Z,100573.41
2022-11-28T04:13:37.380Z,100569.16
2022-11-28T04:16:54.280Z,100567.25
2022-11-28T04:20:07.521Z,100573.13
2022-11-28T04:23:14.103Z,100571.69
2022-11-28T04:26:21.712Z,100565.69
2022-11-28T04:29:25.381Z,100568.03
2022-11-28T04:32:30.512Z,100560.94
2022-11-28T04:35:38.610Z,100554.59
2022-11-28T04:38:44.117Z,100552.06
2022-11-28T04:41:55.016Z,100552.06
2022-11-28T04:45:03.946Z,100558.53
2022-11-28T04:48:07.625Z,100554.91
2022-11-28T04:51:27.759Z,100561.22
2022-11-28T04:54:39.585Z,100564.66
2022-11-28T04:57:52.875Z,100573.06
2022-11-28T05:01:00.131Z,100568.59
2022-11-28T05:04:03.407Z,100569.88
2022-11-28T05:07:08.305Z,100577.44
2022-11-28T05:10:13.923Z,100583.66
2022-11-28T05:13:18.087Z,100581.59
2022-11-28T05:16:22.929Z,100589.16
2022-11-28T05:19:26.425Z,100596.44
2022-11-28T05:22:29.764Z,100599.13
2022-11-28T05:25:33.032Z,100602.72
2022-11-28T05:28:36.012Z,100598.62
2022-11-28T05:31:39.671Z,100604.16
2022-11-28T05:34:42.804Z,100600.81
2022-11-28T05:37:46.198Z,100606.19
2022-11-28T05:40:49.431Z,100601.44
2022-11-28T05:43:53.290Z,100602.72
2022-11-28T05:46:56.148Z,100599.09
2022-11-28T05:49:59.580Z,100596.72
2022-11-28T05:53:02.559Z,100582.97
2022-11-28T05:56:16.649Z,100585.94
2022-11-28T05:59:19.556Z,100595.59
2022-11-28T06:02:22.809Z,100589.91
2022-11-28T06:05:41.511Z,100592.59
2022-11-28T06:08:51.612Z,100594.66
2022-11-28T06:11:55.541Z,100589.78
2022-11-28T06:14:58.509Z,100589.28
2022-11-28T06:18:02.989Z,100586.31
2022-11-28T06:21:07.185Z,100587.72
2022-11-28T06:24:11.038Z,100582.22
2022-11-28T06:27:13.956Z,100580.13
2022-11-28T06:30:17.365Z,100576.66
2022-11-28T06:33:20.315Z,100581.81
2022-11-28T06:36:23.769Z,100584.03
2022-11-28T06:39:26.713Z,100585.44
2022-11-28T06:42:29.946Z,100589.56
2022-11-28T06:45:35.843Z,100598.81
2022-11-28T06:48:39.059Z,100593.69
2022-11-28T06:51:42.366Z,100589.41
2022-11-28T06:54:45.514Z,100605.91
2022-11-28T06:57:49.077Z,100601.03
2022-11-28T07:00:52.348Z,100595.47
2022-11-28T07:03:55.878Z,100592.00
2022-11-28T07:06:59.037Z,100594.88
2022-11-28T07:10:02.331Z,100600.91
2022-11-28T07:13:05.886Z,100600.13
2022-11-28T07:16:14.438Z,100599.81
2022-11-28T07:19:22.887Z,100600.13
2022-11-28T07:22:25.753Z,100595.72
2022-11-28T07:25:28.998Z,100599.22
2022-11-28T07:28:32.856Z,100605.22
2022-11-28T07:31:37.290Z,100595.56
2022-11-28T07:34:45.504Z,100592.25
2022-11-28T07:37:51.157Z,100590.66
2022-11-28T07:40:54.124Z,100584.66
2022-11-28T07:43:59.615Z,100580.69
2022-11-28T07:47:02.549Z,100577.06
2022-11-28T07:50:06.682Z,100577.22
2022-11-28T07:53:09.547Z,100578.00
2022-11-28T07:56:15.793Z,100570.56
2022-11-28T07:59:18.661Z,100576.09
2022-11-28T08:02:22.021Z,100562.66
2022-11-28T08:05:25.260Z,100572.47
2022-11-28T08:08:28.130Z,100570.91
2022-11-28T08:11:32.826Z,100570.28
2022-11-28T08:14:35.778Z,100577.06
2022-11-28T08:17:40.277Z,100574.38
2022-11-28T08:20:43.478Z,100575.16
2022-11-28T08:23:46.695Z,100575.50
2022-11-28T08:26:49.545Z,100573.75
2022-11-28T08:29:53.995Z,100574.06
2022-11-28T08:32:57.468Z,100576.13
2022-11-28T08:36:00.801Z,100569.00
2022-11-28T08:42:29.172Z,100580.69
2022-11-28T08:45:35.313Z,100582.13
2022-11-28T08:48:40.412Z,100581.81
2022-11-28T08:51:43.332Z,100578.00
2022-11-28T08:54:47.706Z,100574.78
2022-11-28T08:57:50.692Z,100578.44
2022-11-28T09:00:54.181Z,100571.56
2022-11-28T09:03:57.371Z,100580.81
2022-11-28T09:07:00.623Z,100572.28
2022-11-28T09:10:04.115Z,100576.41
2022-11-28T09:13:07.698Z,100559.28
2022-11-28T09:16:10.801Z,100575.13
2022-11-28T09:19:14.122Z,100578.78
2022-11-28T09:22:17.051Z,100568.13
2022-11-28T09:25:20.178Z,100561.94
2022-11-28T09:28:23.845Z,100560.09
2022-11-28T09:31:28.397Z,100554.38
2022-11-28T09:34:31.578Z,100536.78
2022-11-28T09:37:35.666Z,100536.63
2022-11-28T09:40:41.259Z,100536.22
2022-11-28T09:43:45.512Z,100535.28
2022-11-28T09:46:50.592Z,100527.19
2022-11-28T09:49:58.347Z,100523.69
2022-11-28T09:53:21.690Z,100527.84
2022-11-28T09:56:24.872Z,100519.81
2022-11-28T09:59:29.963Z,100521.44
2022-11-28T10:02:36.325Z,100518.63
2022-11-28T10:05:45.442Z,100520.62
2022-11-28T10:09:06.830Z,100509.88
2022-11-28T10:12:39.603Z,100507.87
2022-11-28T10:15:49.004Z,100509.56
2022-11-28T10:19:00.544Z,100508.50
2022-11-28T10:22:05.939Z,100504.87
2022-11-28T10:25:18.490Z,100493.12
2022-11-28T10:28:26.004Z,100494.75
2022-11-28T10:31:38.586Z,100480.97
2022-11-28T10:34:45.633Z,100489.59
2022-11-28T10:37:49.825Z,100482.31
2022-11-28T10:41:12.569Z,100485.81
2022-11-28T10:44:21.177Z,100481.22
2022-11-28T10:47:49.689Z,100485.56
2022-11-28T10:51:03.027Z,100482.16
2022-11-28T10:54:30.347Z,100477.37
2022-11-28T10:58:01.087Z,100475.44
2022-11-28T11:01:04.685Z,100471.81
2022-11-28T11:04:19.054Z,100471.16
2022-11-28T11:07:30.450Z,100472.66
2022-11-28T11:10:44.681Z,100467.97
2022-11-28T11:14:05.038Z,100471.31
2022-11-28T11:17:10.651Z,100465.34
2022-11-28T11:20:27.942Z,100469.91
2022-11-28T11:23:36.760Z,100474.22
2022-11-28T11:26:44.039Z,100476.31
2022-11-28T11:29:51.227Z,100464.81
2022-11-28T11:32:56.455Z,100469.41
2022-11-28T11:36:00.243Z,100470.06
2022-11-28T11:39:25.463Z,100463.28
2022-11-28T11:42:30.360Z,100465.59
2022-11-28T11:45:35.395Z,100472.34
2022-11-28T11:48:47.016Z,100463.53
2022-11-28T11:51:56.190Z,100469.47
2022-11-28T11:55:07.674Z,100459.81
2022-11-28T11:58:11.702Z,100443.34
2022-11-28T12:01:17.263Z,100443.19
2022-11-28T12:04:45.088Z,100451.69
2022-11-28T12:08:15.306Z,100440.13
2022-11-28T12:11:23.982Z,100436.69
2022-11-28T12:14:30.373Z,100442.59
2022-11-28T12:17:58.856Z,100442.41
2022-11-28T12:21:16.786Z,100429.75
2022-11-28T12:24:30.694Z,100433.37
2022-11-28T12:27:33.449Z,100434.63
2022-11-28T12:30:54.882Z,100430.44
2022-11-28T12:34:24.965Z,100423.78
2022-11-28T12:38:09.724Z,100429.56
2022-11-28T12:41:47.498Z,100433.53
2022-11-28T12:45:14.891Z,100437.47
2022-11-28T12:48:58.748Z,100425.72
2022-11-28T12:52:19.517Z,100428.19
2022-11-28T12:55:22.524Z,100427.06
2022-11-28T12:58:47.707Z,100423.69
2022-11-28T13:02:18.918Z,100420.28
2022-11-28T13:05:32.887Z,100421.25
2022-11-28T13:08:47.892Z,100425.16
2022-11-28T13:12:30.320Z,100414.13
2022-11-28T13:15:46.337Z,100415.50
2022-11-28T13:19:04.037Z,100413.50
2022-11-28T13:22:15.592Z,100415.56
2022-11-28T13:25:48.767Z,100414.19
2022-11-28T13:29:28.068Z,100408.78
2022-11-28T13:32:33.977Z,100407.97
2022-11-28T13:35:37.586Z,100407.91
2022-11-28T13:39:11.826Z,100402.94
2022-11-28T13:43:02.889Z,100394.34
2022-11-28T13:46:09.563Z,100391.16
2022-11-28T13:49:25.756Z,100394.19
2022-11-28T13:52:29.520Z,100389.53
2022-11-28T13:55:50.667Z,100391.47
2022-11-28T13:59:01.443Z,100386.53
2022-11-28T14:02:23.630Z,100386.09
2022-11-28T14:05:41.548Z,100378.50
2022-11-28T14:08:47.361Z,100386.37
2022-11-28T14:12:09.545Z,100385.63
2022-11-28T14:15:29.099Z,100374.41
2022-11-28T14:18:57.813Z,100377.62
2022-11-28T14:22:07.899Z,100370.50
2022-11-28T14:25:20.107Z,100374.16
2022-11-28T14:28:37.001Z,100378.91
2022-11-28T14:31:40.502Z,100368.94
2022-11-28T14:34:46.972Z,100370.38
2022-11-28T14:37:55.611Z,100368.81
2022-11-28T14:41:03.337Z,100369.94
2022-11-28T14:44:45.765Z,100372.63
2022-11-28T14:48:17.972Z,100382.13
2022-11-28T14:51:53.595Z,100384.00
2022-11-28T14:55:17.846Z,100389.22
2022-11-28T14:58:21.231Z,100391.12
2022-11-28T15:02:13.072Z,100390.81
2022-11-28T15:05:28.918Z,100389.84
2022-11-28T15:08:38.278Z,100386.37
2022-11-28T15:11:59.016Z,100382.91
2022-11-28T15:15:02.200Z,100388.25
2022-11-28T15:18:06.638Z,100394.25
2022-11-28T15:21:15.314Z,100387.13
2022-11-28T15:24:34.911Z,100384.78
2022-11-28T15:27:38.521Z,100399.44
2022-11-28T15:30:48.485Z,100388.25
2022-11-28T15:33:52.426Z,100393.44
2022-11-28T15:36:58.908Z,100401.03
2022-11-28T15:40:06.861Z,100394.69
2022-11-28T15:43:13.516Z,100394.25
2022-11-28T15:46:24.496Z,100388.38
2022-11-28T15:49:34.410Z,100389.50
2022-11-28T15:52:37.929Z,100388.03
2022-11-28T15:55:41.165Z,100390.72
2022-11-28T15:58:45.030Z,100389.47
2022-11-28T16:01:48.290Z,100390.69
2022-11-28T16:05:05.096Z,100382.19
2022-11-28T16:08:18.564Z,100381.56
2022-11-28T16:11:26.571Z,100384.53
2022-11-28T16:14:36.937Z,100385.50
2022-11-28T16:17:41.965Z,100382.66
2022-11-28T16:20:45.633Z,100379.19
2022-11-28T16:23:49.448Z,100380.91
2022-11-28T16:27:01.678Z,100385.03
2022-11-28T16:30:26.465Z,100389.78
2022-11-28T16:33:44.328Z,100393.88
2022-11-28T16:36:50.505Z,100389.63
2022-11-28T16:40:20.198Z,100392.47
2022-11-28T16:43:37.761Z,100391.84
2022-11-28T16:46:53.221Z,100389.16
2022-11-28T16:50:26.581Z,100393.13
2022-11-28T16:53:41.446Z,100397.06
2022-11-28T16:56:44.784Z,100391.38
2022-11-28T16:59:49.506Z,100385.38
2022-11-28T17:02:54.265Z,100389.81
2022-11-28T17:05:57.556Z,100393.28
2022-11-28T17:09:01.979Z,100395.69
2022-11-28T17:12:09.641Z,100387.47
2022-11-28T17:15:19.493Z,100399.16
2022-11-28T17:18:22.801Z,100399.31
2022-11-28T17:21:45.289Z,100398.38
2022-11-28T17:24:49.056Z,100396.16
2022-11-28T17:27:53.363Z,100402.34
2022-11-28T17:30:56.341Z,100398.66
2022-11-28T17:34:01.605Z,100392.53
2022-11-28T17:37:06.447Z,100400.06
2022-11-28T17:40:28.679Z,100406.53
2022-11-28T17:43:37.485Z,100403.69
2022-11-28T17:46:43.445Z,100404.47
2022-11-28T17:49:47.406Z,100407.63
2022-11-28T17:52:51.567Z,100409.97
2022-11-28T17:55:59.971Z,100404.75
2022-11-28T17:59:04.165Z,100400.31
2022-11-28T18:02:07.823Z,100408.19
2022-11-28T18:05:11.466Z,100406.03
2022-11-28T18:08:21.648Z,100401.03
2022-11-28T18:11:28.100Z,100398.31
2022-11-28T18:14:36.615Z,100406.50
2022-11-28T18:17:43.490Z,100407.28
2022-11-28T18:20:50.192Z,100405.84
2022-11-28T18:23:54.687Z,100404.28
2022-11-28T18:26:58.452Z,100406.13
2022-11-28T18:30:02.888Z,100403.41
2022-11-28T18:33:06.980Z,100403.03
2022-11-28T18:36:14.804Z,100398.44
2022-11-28T18:39:18.475Z,100403.81
2022-11-28T18:42:22.521Z,100408.50
2022-11-28T18:45:26.257Z,100399.69
2022-11-28T18:48:30.208Z,100392.75
2022-11-28T18:51:35.619Z,100393.78
2022-11-28T18:54:39.325Z,100389.69
2022-11-28T18:57:43.373Z,100402.63
2022-11-28T19:00:48.563Z,100400.97
2022-11-28T19:03:54.353Z,100397.34
2022-11-28T19:07:01.098Z,100396.84
2022-11-28T19:10:05.717Z,100396.22
2022-11-28T19:13:12.296Z,100394.53
2022-11-28T19:16:19.595Z,100399.03
2022-11-28T19:19:25.527Z,100405.84
2022-11-28T19:22:28.978Z,100408.50
2022-11-28T19:25:35.452Z,100395.25
2022-11-28T19:28:40.831Z,100396.06
2022-11-28T19:31:45.048Z,100402.31
2022-11-28T19:34:52.780Z,100396.84
2022-11-28T19:37:56.787Z,100400.78
2022-11-28T19:41:08.795Z,100396.06
2022-11-28T19:44:13.571Z,100400.34
2022-11-28T19:47:18.169Z,100404.75
2022-11-28T19:50:21.898Z,100403.59
2022-11-28T19:53:29.558Z,100403.41
2022-11-28T19:56:33.877Z,100410.94
2022-11-28T19:59:38.554Z,100409.44
2022-11-28T20:02:42.776Z,100415.97
2022-11-28T20:05:46.976Z,100411.88
2022-11-28T20:08:52.963Z,100411.62
2022-11-28T20:11:58.005Z,100418.16
2022-11-28T20:15:03.844Z,100410.16
2022-11-28T20:18:09.050Z,100415.31
2022-11-28T20:21:17.760Z,100417.16
2022-11-28T20:24:22.564Z,100417.03
2022-11-28T20:27:26.758Z,100412.66
2022-11-28T20:30:31.943Z,100410.28
2022-11-28T20:33:35.597Z,100418.19
2022-11-28T20:36:39.476Z,100420.13
2022-11-28T20:39:43.702Z,100418.22
2022-11-28T20:42:47.617Z,100418.41
2022-11-28T20:45:50.998Z,100426.50
2022-11-28T20:48:55.435Z,100428.19
2022-11-28T20:51:58.828Z,100426.63
2022-11-28T20:55:02.047Z,100418.47
2022-11-28T20:58:05.418Z,100423.22
2022-11-28T21:01:11.554Z,100423.41
2022-11-28T21:04:17.065Z,100418.03
2022-11-28T21:07:20.495Z,100425.31
2022-11-28T21:10:23.677Z,100431.31
2022-11-28T21:13:27.058Z,100425.59
2022-11-28T21:16:31.698Z,100422.94
2022-11-28T21:19:35.431Z,100419.94
2022-11-28T21:22:38.439Z,100426.41
2022-11-28T21:25:44.120Z,100420.41
2022-11-28T21:28:50.774Z,100419.59
2022-11-28T21:31:54.753Z,100422.94
2022-11-28T21:35:04.106Z,100422.91
2022-11-28T21:38:08.349Z,100414.16
2022-11-28T21:41:11.199Z,100414.50
2022-11-28T21:44:15.801Z,100412.25
2022-11-28T21:47:18.589Z,100413.06
2022-11-28T21:50:23.497Z,100413.84
2022-11-28T21:53:27.981Z,100416.81
2022-11-28T21:56:31.294Z,100410.66
2022-11-28T21:59:34.470Z,100414.94
2022-11-28T22:02:38.302Z,100408.31
2022-11-28T22:05:41.782Z,100415.06
2022-11-28T22:08:45.593Z,100419.19
2022-11-28T22:11:48.932Z,100415.19
2022-11-28T22:14:51.796Z,100410.34
2022-11-28T22:17:55.079Z,100420.72
2022-11-28T22:21:22.419Z,100412.41
2022-11-28T22:24:29.690Z,100418.38
2022-11-28T22:27:34.958Z,100410.78
2022-11-28T22:30:40.272Z,100411.59
2022-11-28T22:33:44.428Z,100407.94
2022-11-28T22:36:48.077Z,100400.88
2022-11-28T22:39:51.025Z,100407.97
2022-11-28T22:42:56.216Z,100404.03
2022-11-28T22:45:59.542Z,100399.81
2022-11-28T22:49:03.969Z,100402.13
2022-11-28T22:52:06.969Z,100403.41
2022-11-28T22:55:10.341Z,100395.31
2022-11-28T22:58:13.340Z,100399.59
2022-11-28T23:01:20.113Z,100400.53
2022-11-28T23:04:23.953Z,100395.81
2022-11-28T23:07:27.746Z,100402.06
2022-11-28T23:10:31.193Z,100393.50
2022-11-28T23:13:35.713Z,100403.63
2022-11-28T23:16:40.272Z,100399.47
2022-11-28T23:19:43.927Z,100398.94
2022-11-28T23:22:46.885Z,100398.03
2022-11-28T23:25:51.173Z,100399.06
2022-11-28T23:28:54.702Z,100397.13
2022-11-28T23:31:58.412Z,100401.12
2022-11-28T23:35:03.022Z,100398.56
2022-11-28T23:38:06.354Z,100395.84
2022-11-28T23:41:10.084Z,100389.94
2022-11-28T23:44:15.263Z,100391.81
2022-11-28T23:47:18.565Z,100386.44
2022-11-28T23:50:21.692Z,100379.75
2022-11-28T23:53:25.114Z,100381.25
2022-11-28T23:56:30.817Z,100380.91
2022-11-28T23:59:34.045Z,100381.25
